sensor_id;sensor_type;location;lat;lon;timestamp;P1;durP1;ratioP1;P2;durP2;ratioP2
26098;SDS011;13860;52.370;6.764;2023-11-21T00:02:49;39.13;;;14.60;;
26098;SDS011;13860;52.370;6.764;2023-11-21T00:05:54;43.75;;;16.45;;
26098;SDS011;13860;52.370;6.764;2023-11-21T00:09:01;47.78;;;16.27;;
26098;SDS011;13860;52.370;6.764;2023-11-21T00:12:10;36.63;;;15.20;;
26098;SDS011;13860;52.370;6.764;2023-11-21T00:15:17;43.50;;;16.63;;
26098;SDS011;13860;52.370;6.764;2023-11-21T00:18:23;44.22;;;16.60;;
26098;SDS011;13860;52.370;6.764;2023-11-21T00:21:30;37.42;;;14.48;;
26098;SDS011;13860;52.370;6.764;2023-11-21T00:24:36;48.42;;;15.88;;
26098;SDS011;13860;52.370;6.764;2023-11-21T00:27:46;43.58;;;17.00;;
26098;SDS011;13860;52.370;6.764;2023-11-21T00:30:51;46.88;;;16.45;;
26098;SDS011;13860;52.370;6.764;2023-11-21T00:33:58;41.58;;;15.27;;
26098;SDS011;13860;52.370;6.764;2023-11-21T00:37:04;53.30;;;15.98;;
26098;SDS011;13860;52.370;6.764;2023-11-21T00:40:12;35.90;;;14.70;;
26098;SDS011;13860;52.370;6.764;2023-11-21T00:43:20;43.58;;;15.73;;
26098;SDS011;13860;52.370;6.764;2023-11-21T00:46:28;48.97;;;15.98;;
26098;SDS011;13860;52.370;6.764;2023-11-21T00:49:34;41.63;;;14.75;;
26098;SDS011;13860;52.370;6.764;2023-11-21T00:52:43;51.13;;;16.67;;
26098;SDS011;13860;52.370;6.764;2023-11-21T00:55:48;45.70;;;16.15;;
26098;SDS011;13860;52.370;6.764;2023-11-21T00:58:58;41.78;;;17.10;;
26098;SDS011;13860;52.370;6.764;2023-11-21T01:02:04;38.78;;;16.52;;
26098;SDS011;13860;52.370;6.764;2023-11-21T01:05:14;44.95;;;17.38;;
26098;SDS011;13860;52.370;6.764;2023-11-21T01:08:20;40.08;;;17.13;;
26098;SDS011;13860;52.370;6.764;2023-11-21T01:11:28;39.67;;;16.10;;
26098;SDS011;13860;52.370;6.764;2023-11-21T01:14:37;43.85;;;16.20;;
26098;SDS011;13860;52.370;6.764;2023-11-21T01:17:45;38.53;;;16.88;;
26098;SDS011;13860;52.370;6.764;2023-11-21T01:20:50;40.08;;;16.50;;
26098;SDS011;13860;52.370;6.764;2023-11-21T01:23:58;45.17;;;15.45;;
26098;SDS011;13860;52.370;6.764;2023-11-21T01:27:04;45.33;;;15.93;;
26098;SDS011;13860;52.370;6.764;2023-11-21T01:30:15;43.65;;;16.83;;
26098;SDS011;13860;52.370;6.764;2023-11-21T01:33:21;46.67;;;16.33;;
26098;SDS011;13860;52.370;6.764;2023-11-21T01:36:30;41.53;;;16.73;;
26098;SDS011;13860;52.370;6.764;2023-11-21T01:39:37;34.53;;;16.05;;
26098;SDS011;13860;52.370;6.764;2023-11-21T01:42:45;38.42;;;15.60;;
26098;SDS011;13860;52.370;6.764;2023-11-21T01:45:53;37.35;;;16.20;;
26098;SDS011;13860;52.370;6.764;2023-11-21T01:49:01;43.78;;;17.05;;
26098;SDS011;13860;52.370;6.764;2023-11-21T01:52:07;44.25;;;17.88;;
26098;SDS011;13860;52.370;6.764;2023-11-21T01:55:15;43.45;;;15.98;;
26098;SDS011;13860;52.370;6.764;2023-11-21T01:58:30;40.03;;;16.27;;
26098;SDS011;13860;52.370;6.764;2023-11-21T02:01:41;40.05;;;17.33;;
26098;SDS011;13860;52.370;6.764;2023-11-21T02:04:48;43.90;;;17.63;;
26098;SDS011;13860;52.370;6.764;2023-11-21T02:07:56;40.47;;;16.73;;
26098;SDS011;13860;52.370;6.764;2023-11-21T02:11:03;52.45;;;17.38;;
26098;SDS011;13860;52.370;6.764;2023-11-21T02:14:10;57.75;;;19.45;;
26098;SDS011;13860;52.370;6.764;2023-11-21T02:17:18;39.03;;;16.45;;
26098;SDS011;13860;52.370;6.764;2023-11-21T02:20:26;47.78;;;18.25;;
26098;SDS011;13860;52.370;6.764;2023-11-21T02:23:35;41.75;;;16.90;;
26098;SDS011;13860;52.370;6.764;2023-11-21T02:26:46;38.28;;;17.10;;
26098;SDS011;13860;52.370;6.764;2023-11-21T02:29:53;35.15;;;16.15;;
26098;SDS011;13860;52.370;6.764;2023-11-21T02:33:01;42.90;;;18.48;;
26098;SDS011;13860;52.370;6.764;2023-11-21T02:36:08;37.75;;;16.08;;
26098;SDS011;13860;52.370;6.764;2023-11-21T02:39:18;55.45;;;18.65;;
26098;SDS011;13860;52.370;6.764;2023-11-21T02:42:24;34.40;;;17.35;;
26098;SDS011;13860;52.370;6.764;2023-11-21T02:45:32;44.28;;;18.35;;
26098;SDS011;13860;52.370;6.764;2023-11-21T02:48:38;40.83;;;16.85;;
26098;SDS011;13860;52.370;6.764;2023-11-21T02:51:45;42.50;;;17.52;;
26098;SDS011;13860;52.370;6.764;2023-11-21T02:54:53;44.95;;;18.92;;
26098;SDS011;13860;52.370;6.764;2023-11-21T02:58:02;45.15;;;17.27;;
26098;SDS011;13860;52.370;6.764;2023-11-21T03:01:08;56.47;;;19.52;;
26098;SDS011;13860;52.370;6.764;2023-11-21T03:04:16;45.90;;;18.73;;
26098;SDS011;13860;52.370;6.764;2023-11-21T03:07:22;46.53;;;18.70;;
26098;SDS011;13860;52.370;6.764;2023-11-21T03:10:32;51.50;;;17.33;;
26098;SDS011;13860;52.370;6.764;2023-11-21T03:13:38;46.10;;;19.33;;
26098;SDS011;13860;52.370;6.764;2023-11-21T03:16:46;46.75;;;17.95;;
26098;SDS011;13860;52.370;6.764;2023-11-21T03:19:52;42.55;;;18.15;;
26098;SDS011;13860;52.370;6.764;2023-11-21T03:23:01;44.17;;;18.02;;
26098;SDS011;13860;52.370;6.764;2023-11-21T03:26:11;50.63;;;18.80;;
26098;SDS011;13860;52.370;6.764;2023-11-21T03:29:18;52.55;;;19.55;;
26098;SDS011;13860;52.370;6.764;2023-11-21T03:32:24;54.55;;;19.08;;
26098;SDS011;13860;52.370;6.764;2023-11-21T03:35:32;56.38;;;19.50;;
26098;SDS011;13860;52.370;6.764;2023-11-21T03:38:38;47.28;;;20.33;;
26098;SDS011;13860;52.370;6.764;2023-11-21T03:41:48;47.92;;;19.77;;
26098;SDS011;13860;52.370;6.764;2023-11-21T03:44:53;45.25;;;19.75;;
26098;SDS011;13860;52.370;6.764;2023-11-21T03:48:01;55.40;;;20.70;;
26098;SDS011;13860;52.370;6.764;2023-11-21T03:51:07;46.10;;;19.65;;
26098;SDS011;13860;52.370;6.764;2023-11-21T03:54:14;42.97;;;17.80;;
26098;SDS011;13860;52.370;6.764;2023-11-21T03:57:23;45.97;;;17.70;;
26098;SDS011;13860;52.370;6.764;2023-11-21T04:00:31;47.15;;;18.42;;
26098;SDS011;13860;52.370;6.764;2023-11-21T04:03:37;52.95;;;19.27;;
26098;SDS011;13860;52.370;6.764;2023-11-21T04:06:44;47.90;;;18.88;;
26098;SDS011;13860;52.370;6.764;2023-11-21T04:09:50;47.08;;;18.40;;
26098;SDS011;13860;52.370;6.764;2023-11-21T04:13:00;46.90;;;18.92;;
26098;SDS011;13860;52.370;6.764;2023-11-21T04:16:05;49.30;;;19.58;;
26098;SDS011;13860;52.370;6.764;2023-11-21T04:19:13;51.55;;;19.02;;
26098;SDS011;13860;52.370;6.764;2023-11-21T04:22:19;47.75;;;18.70;;
26098;SDS011;13860;52.370;6.764;2023-11-21T04:25:26;51.90;;;19.88;;
26098;SDS011;13860;52.370;6.764;2023-11-21T04:28:34;45.17;;;18.73;;
26098;SDS011;13860;52.370;6.764;2023-11-21T04:31:42;48.33;;;18.98;;
26098;SDS011;13860;52.370;6.764;2023-11-21T04:34:48;52.17;;;20.75;;
26098;SDS011;13860;52.370;6.764;2023-11-21T04:37:55;61.83;;;21.35;;
26098;SDS011;13860;52.370;6.764;2023-11-21T04:41:01;52.83;;;18.60;;
26098;SDS011;13860;52.370;6.764;2023-11-21T04:44:11;47.63;;;19.02;;
26098;SDS011;13860;52.370;6.764;2023-11-21T04:47:18;48.60;;;18.73;;
26098;SDS011;13860;52.370;6.764;2023-11-21T04:50:25;54.75;;;18.30;;
26098;SDS011;13860;52.370;6.764;2023-11-21T04:53:31;57.47;;;19.95;;
26098;SDS011;13860;52.370;6.764;2023-11-21T04:56:38;49.85;;;20.05;;
26098;SDS011;13860;52.370;6.764;2023-11-21T04:59:46;47.90;;;19.15;;
26098;SDS011;13860;52.370;6.764;2023-11-21T05:02:54;47.55;;;19.02;;
26098;SDS011;13860;52.370;6.764;2023-11-21T05:05:59;46.10;;;19.33;;
26098;SDS011;13860;52.370;6.764;2023-11-21T05:09:09;57.80;;;20.10;;
26098;SDS011;13860;52.370;6.764;2023-11-21T05:12:14;61.35;;;21.00;;
26098;SDS011;13860;52.370;6.764;2023-11-21T05:15:24;50.30;;;20.65;;
26098;SDS011;13860;52.370;6.764;2023-11-21T05:18:30;46.10;;;19.40;;
26098;SDS011;13860;52.370;6.764;2023-11-21T05:21:38;61.40;;;20.65;;
26098;SDS011;13860;52.370;6.764;2023-11-21T05:24:43;45.25;;;19.15;;
26098;SDS011;13860;52.370;6.764;2023-11-21T05:27:51;45.47;;;18.90;;
26098;SDS011;13860;52.370;6.764;2023-11-21T05:30:59;45.75;;;19.58;;
26098;SDS011;13860;52.370;6.764;2023-11-21T05:34:19;46.33;;;20.13;;
26098;SDS011;13860;52.370;6.764;2023-11-21T05:37:26;49.40;;;18.90;;
26098;SDS011;13860;52.370;6.764;2023-11-21T05:40:33;47.00;;;19.70;;
26098;SDS011;13860;52.370;6.764;2023-11-21T05:43:39;47.83;;;18.60;;
26098;SDS011;13860;52.370;6.764;2023-11-21T05:46:49;43.00;;;19.27;;
26098;SDS011;13860;52.370;6.764;2023-11-21T05:49:55;53.25;;;18.90;;
26098;SDS011;13860;52.370;6.764;2023-11-21T05:53:02;45.22;;;18.90;;
26098;SDS011;13860;52.370;6.764;2023-11-21T05:56:08;48.33;;;19.45;;
26098;SDS011;13860;52.370;6.764;2023-11-21T05:59:15;50.92;;;19.65;;
26098;SDS011;13860;52.370;6.764;2023-11-21T06:02:27;50.97;;;18.80;;
26098;SDS011;13860;52.370;6.764;2023-11-21T06:05:34;42.45;;;18.38;;
26098;SDS011;13860;52.370;6.764;2023-11-21T06:08:40;44.80;;;19.27;;
26098;SDS011;13860;52.370;6.764;2023-11-21T06:11:48;43.45;;;19.58;;
26098;SDS011;13860;52.370;6.764;2023-11-21T06:14:53;48.38;;;20.30;;
26098;SDS011;13860;52.370;6.764;2023-11-21T06:18:04;40.25;;;18.25;;
26098;SDS011;13860;52.370;6.764;2023-11-21T06:21:16;44.17;;;18.75;;
26098;SDS011;13860;52.370;6.764;2023-11-21T06:24:23;45.97;;;20.33;;
26098;SDS011;13860;52.370;6.764;2023-11-21T06:27:28;46.53;;;20.02;;
26098;SDS011;13860;52.370;6.764;2023-11-21T06:30:38;45.13;;;20.33;;
26098;SDS011;13860;52.370;6.764;2023-11-21T06:33:47;38.72;;;18.40;;
26098;SDS011;13860;52.370;6.764;2023-11-21T06:36:56;44.95;;;18.80;;
26098;SDS011;13860;52.370;6.764;2023-11-21T06:40:01;41.90;;;18.77;;
26098;SDS011;13860;52.370;6.764;2023-11-21T06:43:10;44.75;;;19.52;;
26098;SDS011;13860;52.370;6.764;2023-11-21T06:46:16;48.38;;;21.52;;
26098;SDS011;13860;52.370;6.764;2023-11-21T06:49:26;45.72;;;19.33;;
26098;SDS011;13860;52.370;6.764;2023-11-21T06:52:33;43.25;;;19.55;;
26098;SDS011;13860;52.370;6.764;2023-11-21T06:55:41;45.40;;;19.35;;
26098;SDS011;13860;52.370;6.764;2023-11-21T06:58:46;49.83;;;20.50;;
26098;SDS011;13860;52.370;6.764;2023-11-21T07:01:54;48.67;;;20.95;;
26098;SDS011;13860;52.370;6.764;2023-11-21T07:05:03;48.88;;;19.90;;
26098;SDS011;13860;52.370;6.764;2023-11-21T07:08:11;50.38;;;20.17;;
26098;SDS011;13860;52.370;6.764;2023-11-21T07:11:16;53.92;;;19.92;;
26098;SDS011;13860;52.370;6.764;2023-11-21T07:14:23;53.33;;;22.08;;
26098;SDS011;13860;52.370;6.764;2023-11-21T07:17:29;47.75;;;21.25;;
26098;SDS011;13860;52.370;6.764;2023-11-21T07:20:39;50.67;;;22.02;;
26098;SDS011;13860;52.370;6.764;2023-11-21T07:23:44;53.00;;;20.40;;
26098;SDS011;13860;52.370;6.764;2023-11-21T07:26:52;50.58;;;20.70;;
26098;SDS011;13860;52.370;6.764;2023-11-21T07:29:58;55.03;;;20.80;;
26098;SDS011;13860;52.370;6.764;2023-11-21T07:33:08;55.35;;;22.42;;
26098;SDS011;13860;52.370;6.764;2023-11-21T07:36:17;57.05;;;19.90;;
26098;SDS011;13860;52.370;6.764;2023-11-21T07:39:25;55.78;;;19.75;;
26098;SDS011;13860;52.370;6.764;2023-11-21T07:42:30;49.88;;;19.90;;
26098;SDS011;13860;52.370;6.764;2023-11-21T07:45:38;45.40;;;19.40;;
26098;SDS011;13860;52.370;6.764;2023-11-21T07:48:47;49.47;;;19.75;;
26098;SDS011;13860;52.370;6.764;2023-11-21T07:51:59;54.58;;;19.70;;
26098;SDS011;13860;52.370;6.764;2023-11-21T07:55:04;43.95;;;18.95;;
26098;SDS011;13860;52.370;6.764;2023-11-21T07:58:12;52.25;;;20.83;;
26098;SDS011;13860;52.370;6.764;2023-11-21T08:01:18;61.42;;;19.77;;
26098;SDS011;13860;52.370;6.764;2023-11-21T08:04:25;50.17;;;20.02;;
26098;SDS011;13860;52.370;6.764;2023-11-21T08:07:37;60.00;;;20.85;;
26098;SDS011;13860;52.370;6.764;2023-11-21T08:10:45;46.60;;;19.38;;
26098;SDS011;13860;52.370;6.764;2023-11-21T08:13:58;49.70;;;19.83;;
26098;SDS011;13860;52.370;6.764;2023-11-21T08:17:05;55.80;;;19.10;;
26098;SDS011;13860;52.370;6.764;2023-11-21T08:20:12;57.80;;;20.33;;
26098;SDS011;13860;52.370;6.764;2023-11-21T08:23:23;50.45;;;20.42;;
26098;SDS011;13860;52.370;6.764;2023-11-21T08:26:28;51.20;;;19.60;;
26098;SDS011;13860;52.370;6.764;2023-11-21T08:29:36;44.97;;;19.65;;
26098;SDS011;13860;52.370;6.764;2023-11-21T08:32:41;51.90;;;19.58;;
26098;SDS011;13860;52.370;6.764;2023-11-21T08:35:49;48.67;;;19.08;;
26098;SDS011;13860;52.370;6.764;2023-11-21T08:38:57;49.72;;;21.58;;
26098;SDS011;13860;52.370;6.764;2023-11-21T08:42:06;45.90;;;18.40;;
26098;SDS011;13860;52.370;6.764;2023-11-21T08:45:11;50.22;;;18.20;;
26098;SDS011;13860;52.370;6.764;2023-11-21T08:48:21;45.35;;;18.80;;
26098;SDS011;13860;52.370;6.764;2023-11-21T08:51:27;56.30;;;20.75;;
26098;SDS011;13860;52.370;6.764;2023-11-21T08:54:37;39.83;;;17.30;;
26098;SDS011;13860;52.370;6.764;2023-11-21T08:57:43;40.08;;;17.05;;
26098;SDS011;13860;52.370;6.764;2023-11-21T09:00:52;38.05;;;16.75;;
26098;SDS011;13860;52.370;6.764;2023-11-21T09:03:57;37.53;;;15.93;;
26098;SDS011;13860;52.370;6.764;2023-11-21T09:07:06;37.88;;;16.63;;
26098;SDS011;13860;52.370;6.764;2023-11-21T09:10:15;38.75;;;17.33;;
26098;SDS011;13860;52.370;6.764;2023-11-21T09:13:23;31.65;;;15.65;;
26098;SDS011;13860;52.370;6.764;2023-11-21T09:16:29;32.05;;;15.27;;
26098;SDS011;13860;52.370;6.764;2023-11-21T09:19:37;38.03;;;15.57;;
26098;SDS011;13860;52.370;6.764;2023-11-21T09:22:42;47.83;;;17.27;;
26098;SDS011;13860;52.370;6.764;2023-11-21T09:25:53;36.35;;;15.10;;
26098;SDS011;13860;52.370;6.764;2023-11-21T09:29:01;33.65;;;14.68;;
26098;SDS011;13860;52.370;6.764;2023-11-21T09:32:09;35.30;;;14.45;;
26098;SDS011;13860;52.370;6.764;2023-11-21T09:35:16;40.40;;;15.73;;
26098;SDS011;13860;52.370;6.764;2023-11-21T09:38:24;41.72;;;15.82;;
26098;SDS011;13860;52.370;6.764;2023-11-21T09:41:34;45.97;;;15.85;;
26098;SDS011;13860;52.370;6.764;2023-11-21T09:44:50;41.13;;;15.80;;
26098;SDS011;13860;52.370;6.764;2023-11-21T09:48:05;39.78;;;15.82;;
26098;SDS011;13860;52.370;6.764;2023-11-21T09:51:12;46.38;;;17.20;;
26098;SDS011;13860;52.370;6.764;2023-11-21T09:54:19;43.85;;;17.20;;
26098;SDS011;13860;52.370;6.764;2023-11-21T09:57:30;47.28;;;16.48;;
26098;SDS011;13860;52.370;6.764;2023-11-21T10:00:36;46.90;;;18.48;;
26098;SDS011;13860;52.370;6.764;2023-11-21T10:03:45;48.83;;;18.35;;
26098;SDS011;13860;52.370;6.764;2023-11-21T10:06:50;45.90;;;17.60;;
26098;SDS011;13860;52.370;6.764;2023-11-21T10:09:59;49.33;;;19.30;;
26098;SDS011;13860;52.370;6.764;2023-11-21T10:13:09;42.83;;;17.65;;
26098;SDS011;13860;52.370;6.764;2023-11-21T10:16:21;48.15;;;18.20;;
26098;SDS011;13860;52.370;6.764;2023-11-21T10:19:29;48.63;;;18.35;;
26098;SDS011;13860;52.370;6.764;2023-11-21T10:22:37;44.97;;;18.73;;
26098;SDS011;13860;52.370;6.764;2023-11-21T10:25:45;51.33;;;19.42;;
26098;SDS011;13860;52.370;6.764;2023-11-21T10:28:59;49.80;;;19.50;;
26098;SDS011;13860;52.370;6.764;2023-11-21T10:32:06;47.40;;;20.08;;
26098;SDS011;13860;52.370;6.764;2023-11-21T10:35:14;48.42;;;20.33;;
26098;SDS011;13860;52.370;6.764;2023-11-21T10:38:19;42.25;;;17.05;;
26098;SDS011;13860;52.370;6.764;2023-11-21T10:41:28;49.00;;;19.63;;
26098;SDS011;13860;52.370;6.764;2023-11-21T10:44:36;41.08;;;17.52;;
26098;SDS011;13860;52.370;6.764;2023-11-21T10:47:44;39.53;;;17.13;;
26098;SDS011;13860;52.370;6.764;2023-11-21T10:50:50;35.80;;;15.52;;
26098;SDS011;13860;52.370;6.764;2023-11-21T10:53:59;37.25;;;16.23;;
26098;SDS011;13860;52.370;6.764;2023-11-21T10:57:04;37.03;;;14.98;;
26098;SDS011;13860;52.370;6.764;2023-11-21T11:00:15;33.22;;;14.27;;
26098;SDS011;13860;52.370;6.764;2023-11-21T11:03:22;36.00;;;14.18;;
26098;SDS011;13860;52.370;6.764;2023-11-21T11:06:30;31.98;;;13.52;;
26098;SDS011;13860;52.370;6.764;2023-11-21T11:09:38;36.20;;;12.35;;
26098;SDS011;13860;52.370;6.764;2023-11-21T11:12:48;29.08;;;12.00;;
26098;SDS011;13860;52.370;6.764;2023-11-21T11:15:58;23.15;;;11.27;;
26098;SDS011;13860;52.370;6.764;2023-11-21T11:19:11;28.20;;;11.20;;
26098;SDS011;13860;52.370;6.764;2023-11-21T11:22:23;29.13;;;12.73;;
26098;SDS011;13860;52.370;6.764;2023-11-21T11:25:52;25.40;;;10.57;;
26098;SDS011;13860;52.370;6.764;2023-11-21T11:29:11;25.60;;;11.20;;
26098;SDS011;13860;52.370;6.764;2023-11-21T11:32:27;27.33;;;12.63;;
26098;SDS011;13860;52.370;6.764;2023-11-21T11:35:45;26.55;;;12.75;;
26098;SDS011;13860;52.370;6.764;2023-11-21T11:39:00;32.65;;;12.98;;
26098;SDS011;13860;52.370;6.764;2023-11-21T11:42:07;31.38;;;13.40;;
26098;SDS011;13860;52.370;6.764;2023-11-21T11:45:18;31.30;;;14.25;;
26098;SDS011;13860;52.370;6.764;2023-11-21T11:48:26;33.67;;;14.23;;
26098;SDS011;13860;52.370;6.764;2023-11-21T11:51:34;26.02;;;13.18;;
26098;SDS011;13860;52.370;6.764;2023-11-21T11:54:39;27.45;;;12.63;;
26098;SDS011;13860;52.370;6.764;2023-11-21T11:57:48;24.13;;;11.30;;
26098;SDS011;13860;52.370;6.764;2023-11-21T12:00:57;21.38;;;10.75;;
26098;SDS011;13860;52.370;6.764;2023-11-21T12:07:43;21.98;;;10.45;;
26098;SDS011;13860;52.370;6.764;2023-11-21T12:10:53;18.10;;;9.05;;
26098;SDS011;13860;52.370;6.764;2023-11-21T12:13:59;18.17;;;9.15;;
26098;SDS011;13860;52.370;6.764;2023-11-21T12:17:09;17.75;;;9.13;;
26098;SDS011;13860;52.370;6.764;2023-11-21T12:20:18;16.70;;;9.18;;
26098;SDS011;13860;52.370;6.764;2023-11-21T12:23:26;17.88;;;9.75;;
26098;SDS011;13860;52.370;6.764;2023-11-21T12:26:32;24.08;;;10.50;;
26098;SDS011;13860;52.370;6.764;2023-11-21T12:29:40;21.10;;;10.65;;
26098;SDS011;13860;52.370;6.764;2023-11-21T12:32:47;24.60;;;13.15;;
26098;SDS011;13860;52.370;6.764;2023-11-21T12:36:02;22.42;;;11.82;;
26098;SDS011;13860;52.370;6.764;2023-11-21T12:39:08;25.10;;;12.27;;
26098;SDS011;13860;52.370;6.764;2023-11-21T12:42:16;24.17;;;12.20;;
26098;SDS011;13860;52.370;6.764;2023-11-21T12:45:23;21.60;;;12.35;;
26098;SDS011;13860;52.370;6.764;2023-11-21T12:48:32;21.10;;;10.75;;
26098;SDS011;13860;52.370;6.764;2023-11-21T12:51:40;17.70;;;10.82;;
26098;SDS011;13860;52.370;6.764;2023-11-21T12:54:48;17.75;;;10.70;;
26098;SDS011;13860;52.370;6.764;2023-11-21T12:57:53;19.92;;;9.13;;
26098;SDS011;13860;52.370;6.764;2023-11-21T13:01:02;14.93;;;9.32;;
26098;SDS011;13860;52.370;6.764;2023-11-21T13:04:13;12.43;;;8.48;;
26098;SDS011;13860;52.370;6.764;2023-11-21T13:07:25;14.60;;;8.57;;
26098;SDS011;13860;52.370;6.764;2023-11-21T13:10:31;12.02;;;8.02;;
26098;SDS011;13860;52.370;6.764;2023-11-21T13:13:41;16.45;;;7.50;;
26098;SDS011;13860;52.370;6.764;2023-11-21T13:16:48;16.00;;;8.38;;
26098;SDS011;13860;52.370;6.764;2023-11-21T13:19:55;10.57;;;7.53;;
26098;SDS011;13860;52.370;6.764;2023-11-21T13:23:07;13.55;;;7.35;;
26098;SDS011;13860;52.370;6.764;2023-11-21T13:26:15;10.13;;;7.07;;
26098;SDS011;13860;52.370;6.764;2023-11-21T13:29:22;14.68;;;7.68;;
26098;SDS011;13860;52.370;6.764;2023-11-21T13:32:30;14.43;;;8.07;;
26098;SDS011;13860;52.370;6.764;2023-11-21T13:35:36;11.13;;;7.57;;
26098;SDS011;13860;52.370;6.764;2023-11-21T13:38:48;11.63;;;7.57;;
26098;SDS011;13860;52.370;6.764;2023-11-21T13:41:54;10.93;;;7.40;;
26098;SDS011;13860;52.370;6.764;2023-11-21T13:45:02;11.75;;;7.25;;
26098;SDS011;13860;52.370;6.764;2023-11-21T13:48:09;10.15;;;6.20;;
26098;SDS011;13860;52.370;6.764;2023-11-21T13:51:17;12.60;;;7.68;;
26098;SDS011;13860;52.370;6.764;2023-11-21T13:54:34;8.35;;;5.88;;
26098;SDS011;13860;52.370;6.764;2023-11-21T13:57:41;10.23;;;6.05;;
26098;SDS011;13860;52.370;6.764;2023-11-21T14:00:51;10.55;;;6.13;;
26098;SDS011;13860;52.370;6.764;2023-11-21T14:04:03;12.30;;;6.97;;
26098;SDS011;13860;52.370;6.764;2023-11-21T14:07:21;10.02;;;6.55;;
26098;SDS011;13860;52.370;6.764;2023-11-21T14:10:42;11.68;;;6.88;;
26098;SDS011;13860;52.370;6.764;2023-11-21T14:13:52;12.52;;;7.28;;
26098;SDS011;13860;52.370;6.764;2023-11-21T14:17:00;9.73;;;6.07;;
26098;SDS011;13860;52.370;6.764;2023-11-21T14:20:09;10.85;;;6.57;;
26098;SDS011;13860;52.370;6.764;2023-11-21T14:23:20;10.13;;;6.43;;
26098;SDS011;13860;52.370;6.764;2023-11-21T14:26:29;11.00;;;6.25;;
26098;SDS011;13860;52.370;6.764;2023-11-21T14:29:37;11.70;;;5.85;;
26098;SDS011;13860;52.370;6.764;2023-11-21T14:32:47;10.18;;;6.03;;
26098;SDS011;13860;52.370;6.764;2023-11-21T14:35:55;12.35;;;6.30;;
26098;SDS011;13860;52.370;6.764;2023-11-21T14:39:00;11.77;;;6.90;;
26098;SDS011;13860;52.370;6.764;2023-11-21T14:42:13;11.25;;;6.75;;
26098;SDS011;13860;52.370;6.764;2023-11-21T14:45:26;12.60;;;6.57;;
26098;SDS011;13860;52.370;6.764;2023-11-21T14:48:34;19.25;;;6.63;;
26098;SDS011;13860;52.370;6.764;2023-11-21T14:51:44;11.43;;;6.95;;
26098;SDS011;13860;52.370;6.764;2023-11-21T14:55:04;11.75;;;6.57;;
26098;SDS011;13860;52.370;6.764;2023-11-21T14:58:25;12.60;;;6.57;;
26098;SDS011;13860;52.370;6.764;2023-11-21T15:01:33;12.93;;;7.88;;
26098;SDS011;13860;52.370;6.764;2023-11-21T15:04:46;11.85;;;6.93;;
26098;SDS011;13860;52.370;6.764;2023-11-21T15:07:57;11.23;;;6.78;;
26098;SDS011;13860;52.370;6.764;2023-11-21T15:11:15;12.55;;;6.50;;
26098;SDS011;13860;52.370;6.764;2023-11-21T15:14:23;10.38;;;6.25;;
26098;SDS011;13860;52.370;6.764;2023-11-21T15:17:33;11.65;;;7.13;;
26098;SDS011;13860;52.370;6.764;2023-11-21T15:20:41;12.98;;;7.43;;
26098;SDS011;13860;52.370;6.764;2023-11-21T15:23:47;14.13;;;7.20;;
26098;SDS011;13860;52.370;6.764;2023-11-21T15:26:55;10.25;;;6.65;;
26098;SDS011;13860;52.370;6.764;2023-11-21T15:30:04;14.05;;;7.55;;
26098;SDS011;13860;52.370;6.764;2023-11-21T15:33:13;11.35;;;7.45;;
26098;SDS011;13860;52.370;6.764;2023-11-21T15:36:18;13.32;;;6.85;;
26098;SDS011;13860;52.370;6.764;2023-11-21T15:39:26;14.10;;;7.32;;
26098;SDS011;13860;52.370;6.764;2023-11-21T15:42:32;12.88;;;7.32;;
26098;SDS011;13860;52.370;6.764;2023-11-21T15:45:43;11.73;;;7.07;;
26098;SDS011;13860;52.370;6.764;2023-11-21T15:48:48;16.00;;;7.20;;
26098;SDS011;13860;52.370;6.764;2023-11-21T15:51:58;11.75;;;7.28;;
26098;SDS011;13860;52.370;6.764;2023-11-21T15:55:05;13.95;;;8.13;;
26098;SDS011;13860;52.370;6.764;2023-11-21T15:58:13;10.85;;;7.15;;
26098;SDS011;13860;52.370;6.764;2023-11-21T16:01:21;11.68;;;6.55;;
26098;SDS011;13860;52.370;6.764;2023-11-21T16:04:29;11.45;;;7.38;;
26098;SDS011;13860;52.370;6.764;2023-11-21T16:07:35;12.90;;;7.75;;
26098;SDS011;13860;52.370;6.764;2023-11-21T16:10:43;15.23;;;7.82;;
26098;SDS011;13860;52.370;6.764;2023-11-21T16:13:48;11.40;;;7.45;;
26098;SDS011;13860;52.370;6.764;2023-11-21T16:16:59;14.07;;;8.35;;
26098;SDS011;13860;52.370;6.764;2023-11-21T16:20:05;11.98;;;7.38;;
26098;SDS011;13860;52.370;6.764;2023-11-21T16:23:16;13.05;;;7.20;;
26098;SDS011;13860;52.370;6.764;2023-11-21T16:26:22;10.45;;;6.65;;
26098;SDS011;13860;52.370;6.764;2023-11-21T16:29:30;16.77;;;7.65;;
26098;SDS011;13860;52.370;6.764;2023-11-21T16:32:38;14.55;;;7.03;;
26098;SDS011;13860;52.370;6.764;2023-11-21T16:35:45;13.57;;;7.78;;
26098;SDS011;13860;52.370;6.764;2023-11-21T16:38:51;18.83;;;8.30;;
26098;SDS011;13860;52.370;6.764;2023-11-21T16:41:59;11.60;;;6.80;;
26098;SDS011;13860;52.370;6.764;2023-11-21T16:45:06;10.30;;;6.60;;
26098;SDS011;13860;52.370;6.764;2023-11-21T16:48:17;10.50;;;6.78;;
26098;SDS011;13860;52.370;6.764;2023-11-21T16:51:23;11.70;;;7.25;;
26098;SDS011;13860;52.370;6.764;2023-11-21T16:54:30;13.00;;;6.13;;
26098;SDS011;13860;52.370;6.764;2023-11-21T16:57:35;9.43;;;6.38;;
26098;SDS011;13860;52.370;6.764;2023-11-21T17:00:43;11.50;;;6.57;;
26098;SDS011;13860;52.370;6.764;2023-11-21T17:03:52;15.27;;;6.03;;
26098;SDS011;13860;52.370;6.764;2023-11-21T17:07:02;11.73;;;6.15;;
26098;SDS011;13860;52.370;6.764;2023-11-21T17:10:08;12.77;;;6.47;;
26098;SDS011;13860;52.370;6.764;2023-11-21T17:13:16;9.48;;;5.93;;
26098;SDS011;13860;52.370;6.764;2023-11-21T17:16:22;11.57;;;5.90;;
26098;SDS011;13860;52.370;6.764;2023-11-21T17:19:33;7.53;;;5.00;;
26098;SDS011;13860;52.370;6.764;2023-11-21T17:22:38;10.73;;;5.15;;
26098;SDS011;13860;52.370;6.764;2023-11-21T17:25:46;9.32;;;5.22;;
26098;SDS011;13860;52.370;6.764;2023-11-21T17:28:52;12.05;;;5.18;;
26098;SDS011;13860;52.370;6.764;2023-11-21T17:32:01;10.50;;;4.88;;
26098;SDS011;13860;52.370;6.764;2023-11-21T17:35:09;9.70;;;5.32;;
26098;SDS011;13860;52.370;6.764;2023-11-21T17:38:17;8.93;;;4.80;;
26098;SDS011;13860;52.370;6.764;2023-11-21T17:41:23;8.45;;;4.75;;
26098;SDS011;13860;52.370;6.764;2023-11-21T17:44:31;11.13;;;4.82;;
26098;SDS011;13860;52.370;6.764;2023-11-21T17:47:36;11.50;;;5.10;;
26098;SDS011;13860;52.370;6.764;2023-11-21T17:50:47;12.35;;;5.18;;
26098;SDS011;13860;52.370;6.764;2023-11-21T17:53:52;8.95;;;5.18;;
26098;SDS011;13860;52.370;6.764;2023-11-21T17:57:05;9.32;;;5.05;;
26098;SDS011;13860;52.370;6.764;2023-11-21T18:00:14;6.85;;;4.45;;
26098;SDS011;13860;52.370;6.764;2023-11-21T18:03:22;11.93;;;6.03;;
26098;SDS011;13860;52.370;6.764;2023-11-21T18:06:30;9.85;;;5.30;;
26098;SDS011;13860;52.370;6.764;2023-11-21T18:09:37;9.43;;;5.57;;
26098;SDS011;13860;52.370;6.764;2023-11-21T18:12:43;10.60;;;5.32;;
26098;SDS011;13860;52.370;6.764;2023-11-21T18:15:50;10.25;;;5.10;;
26098;SDS011;13860;52.370;6.764;2023-11-21T18:18:56;8.50;;;4.80;;
26098;SDS011;13860;52.370;6.764;2023-11-21T18:22:06;10.20;;;6.13;;
26098;SDS011;13860;52.370;6.764;2023-11-21T18:25:11;11.52;;;5.15;;
26098;SDS011;13860;52.370;6.764;2023-11-21T18:28:21;9.85;;;5.35;;
26098;SDS011;13860;52.370;6.764;2023-11-21T18:31:27;12.77;;;5.82;;